Time;durP1;ratioP1;P1;durP2;ratioP2;P2;SDS_P1;SDS_P2;PMS_P1;PMS_P2;Temp;Humidity;BMP_temperature;BMP_pressure;BME280_temperature;BME280_humidity;BME280_pressure;Samples;Min_cycle;Max_cycle;Signal;HPM_P1;HPM_P2
2024/01/17 00:01:58;;;;;;;20.07;13.50;;;;;;;1.98;47.68;96111.16;5050398;28;20815;-67
2024/01/17 00:04:23;;;;;;;21.67;14.13;;;;;;;2.13;47.39;96109.06;5049685;28;20512;-69
2024/01/17 00:06:49;;;;;;;21.97;13.53;;;;;;;2.23;46.98;96110.91;5043924;28;21020;-67
2024/01/17 00:09:15;;;;;;;26.53;12.80;;;;;;;2.26;46.89;96100.31;5050638;28;20183;-67
2024/01/17 00:11:42;;;;;;;19.10;11.10;;;;;;;2.34;46.25;96099.66;5061169;28;20256;-68
2024/01/17 00:14:08;;;;;;;25.50;12.97;;;;;;;2.33;46.19;96096.28;5057836;28;20839;-68
2024/01/17 00:16:33;;;;;;;20.00;12.20;;;;;;;2.28;46.33;96096.63;5051184;28;20441;-68
2024/01/17 00:18:58;;;;;;;20.67;12.40;;;;;;;2.19;46.99;96087.06;5056330;28;20425;-67
2024/01/17 00:21:24;;;;;;;23.47;13.00;;;;;;;2.30;46.71;96071.47;5051717;28;20234;-68
2024/01/17 00:23:49;;;;;;;27.33;12.80;;;;;;;2.40;46.58;96071.53;5044661;28;20209;-68
2024/01/17 00:26:15;;;;;;;21.20;12.13;;;;;;;2.45;46.53;96065.97;5056983;28;20290;-66
2024/01/17 00:28:40;;;;;;;26.37;13.17;;;;;;;2.28;46.62;96065.59;5058824;28;20206;-67
2024/01/17 00:31:06;;;;;;;22.60;12.57;;;;;;;2.27;46.78;96063.97;5058647;28;20207;-68
2024/01/17 00:33:31;;;;;;;22.80;13.80;;;;;;;2.26;47.09;96066.69;5057082;28;20278;-68
2024/01/17 00:35:56;;;;;;;19.33;12.37;;;;;;;2.26;46.82;96072.69;5050280;28;20616;-69
2024/01/17 00:38:23;;;;;;;19.20;12.40;;;;;;;2.14;47.14;96061.59;5049773;28;20834;-68
2024/01/17 00:40:48;;;;;;;25.33;13.20;;;;;;;2.17;47.59;96068.28;5052253;28;20332;-67
2024/01/17 00:43:14;;;;;;;20.70;12.53;;;;;;;1.99;47.74;96055.94;5059892;28;20504;-68
2024/01/17 00:45:40;;;;;;;23.20;13.13;;;;;;;2.01;47.71;96057.59;5052463;28;20210;-68
2024/01/17 00:48:05;;;;;;;17.90;12.00;;;;;;;2.12;47.71;96049.75;5048369;28;20207;-68
2024/01/17 00:50:31;;;;;;;20.90;13.03;;;;;;;1.97;48.30;96051.84;5049556;28;20214;-68
2024/01/17 00:52:56;;;;;;;20.73;12.33;;;;;;;2.06;48.16;96045.09;5045190;28;20183;-69
2024/01/17 00:55:21;;;;;;;18.77;11.50;;;;;;;1.92;47.67;96041.88;5039120;28;20262;-67
2024/01/17 00:57:47;;;;;;;15.20;10.67;;;;;;;2.04;47.69;96036.63;5036613;28;20191;-68
2024/01/17 01:00:13;;;;;;;15.73;10.90;;;;;;;2.12;46.88;96029.88;5045209;28;20213;-69
2024/01/17 01:02:39;;;;;;;18.63;11.17;;;;;;;2.07;46.69;96033.81;5049097;28;20187;-68
2024/01/17 01:05:04;;;;;;;17.33;11.37;;;;;;;2.16;46.98;96035.63;5046551;28;20245;-68
2024/01/17 01:07:29;;;;;;;16.53;11.10;;;;;;;2.07;47.12;96036.38;5049225;28;20183;-67
2024/01/17 01:09:55;;;;;;;19.33;10.50;;;;;;;2.07;47.04;96036.38;5057794;28;20239;-68
2024/01/17 01:12:20;;;;;;;17.93;10.53;;;;;;;2.15;46.68;96039.97;5045727;28;20171;-67
2024/01/17 01:14:46;;;;;;;17.70;12.00;;;;;;;2.19;46.72;96035.38;5045890;28;20275;-67
2024/01/17 01:17:11;;;;;;;16.30;11.47;;;;;;;2.22;47.26;96026.53;5038394;28;20215;-69
2024/01/17 01:19:37;;;;;;;16.60;11.87;;;;;;;2.34;46.66;96030.66;5050061;28;20286;-68
2024/01/17 01:22:02;;;;;;;17.63;10.70;;;;;;;2.19;46.46;96029.38;5042511;28;20187;-68
2024/01/17 01:24:27;;;;;;;22.53;11.00;;;;;;;2.02;47.66;96023.06;5056266;28;20178;-68
2024/01/17 01:26:53;;;;;;;18.60;12.00;;;;;;;2.10;47.23;96026.59;5040545;28;20628;-66
2024/01/17 01:29:19;;;;;;;21.57;12.27;;;;;;;2.12;47.56;96023.91;5041699;28;20669;-69
2024/01/17 01:31:45;;;;;;;18.90;10.47;;;;;;;2.07;47.70;96020.88;5058847;28;20495;-68
2024/01/17 01:34:10;;;;;;;16.03;11.23;;;;;;;2.17;47.70;96015.78;5050559;28;20201;-69
2024/01/17 01:36:36;;;;;;;20.30;11.90;;;;;;;2.30;47.74;96014.59;5044848;28;20335;-70
2024/01/17 01:39:01;;;;;;;28.33;11.87;;;;;;;2.39;47.21;96012.19;5038109;28;20542;-68
2024/01/17 01:41:27;;;;;;;17.67;11.40;;;;;;;2.49;47.29;96010.47;5047380;28;20202;-69
2024/01/17 01:43:52;;;;;;;16.60;11.40;;;;;;;2.51;47.08;96000.81;5056612;28;20192;-66
2024/01/17 01:46:20;;;;;;;19.43;11.30;;;;;;;2.52;47.20;95994.66;5049046;28;20289;-67
2024/01/17 01:48:46;;;;;;;16.73;11.30;;;;;;;2.53;47.06;95993.69;5042298;28;20218;-68
2024/01/17 01:51:12;;;;;;;16.37;10.37;;;;;;;2.53;47.54;95992.91;5047447;28;20476;-67
2024/01/17 01:53:38;;;;;;;16.90;11.83;;;;;;;2.61;47.42;95986.13;5048943;28;20183;-69
2024/01/17 01:56:04;;;;;;;16.87;10.30;;;;;;;2.71;47.01;95982.72;5041820;28;20267;-65
2024/01/17 01:58:30;;;;;;;22.43;11.90;;;;;;;2.67;47.21;95982.19;5022835;28;20501;-66
2024/01/17 02:00:56;;;;;;;18.70;11.60;;;;;;;2.83;47.47;95979.06;5038618;28;20931;-68
2024/01/17 02:03:23;;;;;;;18.73;11.10;;;;;;;2.82;47.41;95971.47;5043311;28;20437;-67
2024/01/17 02:05:49;;;;;;;19.90;11.90;;;;;;;2.86;47.45;95950.34;5048712;28;20598;-68
2024/01/17 02:08:15;;;;;;;20.23;11.77;;;;;;;2.90;47.35;95956.06;5059245;28;20508;-67
2024/01/17 02:10:40;;;;;;;21.40;12.10;;;;;;;2.94;47.45;95952.25;5057912;28;20293;-68
2024/01/17 02:13:07;;;;;;;18.77;11.80;;;;;;;2.94;47.29;95954.00;5041153;28;20182;-69
2024/01/17 02:15:33;;;;;;;19.97;11.50;;;;;;;3.03;47.00;95940.25;5052207;28;20244;-68
2024/01/17 02:17:59;;;;;;;21.73;11.53;;;;;;;2.90;46.99;95948.31;5055496;28;20421;-67
2024/01/17 02:20:25;;;;;;;25.90;11.40;;;;;;;2.82;47.34;95943.00;5048066;28;20229;-68
2024/01/17 02:22:50;;;;;;;17.37;11.50;;;;;;;2.66;48.00;95933.97;5015964;28;20926;-69
2024/01/17 02:25:15;;;;;;;17.40;11.13;;;;;;;2.61;48.17;95929.22;5026612;28;20258;-67
2024/01/17 02:27:41;;;;;;;24.03;11.57;;;;;;;2.79;48.30;95933.72;5036614;28;20185;-67
2024/01/17 02:30:07;;;;;;;18.33;11.50;;;;;;;2.89;48.38;95934.56;5048281;28;20633;-69
2024/01/17 02:32:33;;;;;;;18.83;11.63;;;;;;;2.81;48.21;95908.50;5055484;28;20191;-68
2024/01/17 02:34:59;;;;;;;20.37;11.20;;;;;;;2.95;48.74;95903.88;5046548;28;20209;-69
2024/01/17 02:37:25;;;;;;;17.37;11.10;;;;;;;2.97;48.37;95902.00;5047212;28;20458;-69
2024/01/17 02:39:50;;;;;;;16.30;11.00;;;;;;;2.82;48.11;95897.22;5050076;28;20621;-68
2024/01/17 02:42:15;;;;;;;23.93;11.43;;;;;;;2.89;48.04;95898.31;5048367;28;20183;-68
2024/01/17 02:44:41;;;;;;;14.33;10.13;;;;;;;2.85;48.25;95903.88;5041150;28;20190;-69
2024/01/17 02:47:06;;;;;;;16.50;10.60;;;;;;;2.96;48.53;95903.75;5057152;28;20262;-69
2024/01/17 02:49:32;;;;;;;20.60;11.20;;;;;;;3.09;47.85;95895.72;5053519;28;20205;-68
2024/01/17 02:51:57;;;;;;;17.40;10.50;;;;;;;3.09;48.64;95890.53;5046633;28;20771;-69
2024/01/17 02:54:23;;;;;;;17.90;10.73;;;;;;;3.17;48.68;95890.66;5048013;28;20180;-66
2024/01/17 02:56:48;;;;;;;14.23;9.97;;;;;;;3.30;48.78;95879.19;5046266;28;20189;-67
2024/01/17 02:59:14;;;;;;;18.10;10.60;;;;;;;3.25;50.04;95877.00;5047948;28;20183;-67
2024/01/17 03:01:39;;;;;;;16.03;10.70;;;;;;;3.21;50.10;95875.69;5055490;28;20186;-69
2024/01/17 03:04:05;;;;;;;15.20;10.63;;;;;;;3.14;51.00;95864.22;5046249;28;20183;-68
2024/01/17 03:06:31;;;;;;;17.10;11.37;;;;;;;3.17;51.61;95867.34;5054827;28;20210;-69
2024/01/17 03:08:56;;;;;;;19.33;11.07;;;;;;;3.18;52.51;95853.44;5052804;28;20179;-69
2024/01/17 03:11:22;;;;;;;17.73;10.70;;;;;;;3.19;52.86;95852.50;5040863;28;20208;-68
2024/01/17 03:13:47;;;;;;;18.50;12.10;;;;;;;3.28;52.81;95848.25;5034501;28;20187;-69
2024/01/17 03:16:14;;;;;;;16.80;11.87;;;;;;;3.33;52.75;95847.84;5043078;28;20199;-69
2024/01/17 03:18:39;;;;;;;17.80;11.80;;;;;;;3.19;53.13;95842.13;5043821;28;20184;-69
2024/01/17 03:21:05;;;;;;;20.03;12.17;;;;;;;3.16;53.22;95842.41;5049125;28;20453;-69
2024/01/17 03:23:30;;;;;;;16.87;12.03;;;;;;;3.25;53.45;95840.75;5047909;28;20282;-69
2024/01/17 03:25:56;;;;;;;18.37;11.80;;;;;;;3.21;53.28;95834.25;5052825;28;20229;-67
2024/01/17 03:28:21;;;;;;;17.53;11.30;;;;;;;3.13;54.04;95836.69;5033101;28;20595;-68
2024/01/17 03:30:47;;;;;;;18.80;11.70;;;;;;;3.09;54.56;95836.16;5042439;28;20723;-68
2024/01/17 03:33:13;;;;;;;18.63;11.77;;;;;;;3.05;54.60;95832.22;5048614;28;20194;-69
2024/01/17 03:35:38;;;;;;;17.00;11.60;;;;;;;3.07;55.29;95835.50;5053402;28;20788;-68
2024/01/17 03:38:04;;;;;;;21.50;12.10;;;;;;;3.02;55.09;95840.28;5051519;28;20640;-68
2024/01/17 03:40:29;;;;;;;20.43;11.90;;;;;;;3.06;55.12;95846.78;5042692;28;20293;-69
2024/01/17 03:42:55;;;;;;;21.50;12.03;;;;;;;3.11;55.47;95831.69;5048400;28;20195;-66
2024/01/17 03:45:20;;;;;;;19.90;12.07;;;;;;;3.17;55.03;95833.69;5037348;28;20282;-67
2024/01/17 03:47:45;;;;;;;20.43;12.87;;;;;;;3.31;55.21;95821.25;5056532;28;20182;-69
2024/01/17 03:50:11;;;;;;;21.00;12.57;;;;;;;3.28;54.68;95814.59;5058097;28;20210;-68
2024/01/17 03:52:36;;;;;;;20.70;12.87;;;;;;;3.43;54.43;95801.19;5057542;28;20197;-69
2024/01/17 03:55:02;;;;;;;20.80;12.53;;;;;;;3.37;54.06;95797.41;5062309;28;20265;-68
2024/01/17 03:57:27;;;;;;;20.63;12.80;;;;;;;3.48;54.78;95786.03;5056792;28;20194;-68
2024/01/17 03:59:53;;;;;;;19.40;12.27;;;;;;;3.58;54.76;95775.63;5052193;28;20301;-68
2024/01/17 04:02:18;;;;;;;20.83;13.43;;;;;;;3.65;54.11;95767.16;5052051;28;20218;-69
2024/01/17 04:04:45;;;;;;;17.80;12.43;;;;;;;3.71;54.34;95772.72;5050577;28;20179;-68
2024/01/17 04:07:11;;;;;;;21.83;12.87;;;;;;;3.68;54.22;95778.97;5041007;28;20187;-68
2024/01/17 04:09:36;;;;;;;19.07;12.50;;;;;;;3.72;54.36;95769.97;5042620;28;20449;-68
2024/01/17 04:12:02;;;;;;;19.87;12.80;;;;;;;3.67;54.86;95757.44;5048942;28;20187;-67
2024/01/17 04:14:28;;;;;;;19.73;12.17;;;;;;;3.71;55.09;95742.44;5058362;28;20195;-68
2024/01/17 04:16:53;;;;;;;18.77;12.47;;;;;;;3.69;55.79;95736.56;5046376;28;20202;-68
2024/01/17 04:19:19;;;;;;;18.67;13.00;;;;;;;3.77;55.65;95736.69;5048069;28;20573;-69
2024/01/17 04:21:44;;;;;;;22.03;13.37;;;;;;;3.87;55.39;95722.84;5008454;28;20190;-68
2024/01/17 04:24:10;;;;;;;22.10;13.30;;;;;;;3.87;56.19;95715.84;5043739;28;20179;-68
2024/01/17 04:26:35;;;;;;;19.33;12.33;;;;;;;3.90;55.53;95705.22;5053912;28;20280;-67
2024/01/17 04:29:01;;;;;;;20.13;12.53;;;;;;;3.87;56.15;95709.88;5046699;28;20209;-68
2024/01/17 04:31:30;;;;;;;19.83;12.50;;;;;;;3.88;55.93;95706.31;5059135;28;20341;-69
2024/01/17 04:33:57;;;;;;;19.10;12.80;;;;;;;3.87;57.03;95699.50;5051938;28;20217;-67
2024/01/17 04:36:27;;;;;;;20.40;12.83;;;;;;;3.89;57.36;95697.59;5050581;28;20428;-70
2024/01/17 04:39:00;;;;;;;18.83;12.90;;;;;;;3.80;57.38;95702.66;5059355;28;20491;-68
2024/01/17 04:41:25;;;;;;;26.37;12.87;;;;;;;3.98;57.42;95702.69;5048834;28;21045;-68
2024/01/17 04:43:51;;;;;;;22.43;14.20;;;;;;;4.01;56.95;95693.81;5056875;28;20513;-68
2024/01/17 04:46:17;;;;;;;21.93;13.67;;;;;;;3.94;57.19;95687.56;5049807;28;20282;-71
2024/01/17 04:48:44;;;;;;;20.87;13.17;;;;;;;3.87;58.12;95681.38;5042363;28;20191;-69
2024/01/17 04:51:10;;;;;;;25.90;13.47;;;;;;;4.01;57.62;95686.03;5055550;28;20195;-69
2024/01/17 04:53:41;;;;;;;19.50;13.33;;;;;;;3.98;58.29;95670.78;5050018;28;20973;-67
2024/01/17 04:56:08;;;;;;;20.90;13.47;;;;;;;4.00;58.60;95664.47;5068370;28;20428;-68
2024/01/17 04:58:34;;;;;;;24.03;12.97;;;;;;;4.03;58.39;95653.00;5054370;28;20433;-66
2024/01/17 05:01:00;;;;;;;21.17;14.00;;;;;;;3.90;59.06;95649.97;5059640;28;20522;-67
2024/01/17 05:03:26;;;;;;;24.30;14.20;;;;;;;3.90;58.94;95637.00;5049193;28;20175;-67
2024/01/17 05:05:51;;;;;;;22.37;13.40;;;;;;;3.97;58.79;95638.84;5048669;28;20203;-66
2024/01/17 05:08:17;;;;;;;21.27;14.13;;;;;;;3.96;59.32;95631.22;5060176;28;20502;-68
2024/01/17 05:10:44;;;;;;;24.57;14.70;;;;;;;4.12;59.17;95628.75;5050433;28;20210;-70
2024/01/17 05:13:10;;;;;;;20.10;13.80;;;;;;;4.15;58.36;95615.50;5057218;28;20186;-69
2024/01/17 05:15:35;;;;;;;22.13;13.63;;;;;;;4.04;59.25;95614.91;5053039;28;20437;-66
2024/01/17 05:18:01;;;;;;;19.17;13.00;;;;;;;4.09;58.48;95610.91;5050260;28;20978;-66
2024/01/17 05:20:26;;;;;;;25.13;14.13;;;;;;;4.09;58.79;95608.31;5042194;28;20294;-67
2024/01/17 05:22:52;;;;;;;24.13;15.50;;;;;;;4.10;58.46;95602.16;5055769;28;20222;-68
2024/01/17 05:25:17;;;;;;;27.23;15.17;;;;;;;4.03;58.75;95595.97;5050798;28;20238;-69
2024/01/17 05:27:50;;;;;;;26.70;16.33;;;;;;;4.08;58.99;95591.13;5041547;28;20212;-69
2024/01/17 05:30:15;;;;;;;29.13;17.30;;;;;;;4.15;58.12;95586.16;5052143;28;20286;-69
2024/01/17 05:32:41;;;;;;;37.10;17.30;;;;;;;4.26;58.56;95577.31;5057643;28;20493;-69
2024/01/17 05:35:07;;;;;;;29.30;16.10;;;;;;;4.17;58.31;95560.88;5050832;28;20468;-68
2024/01/17 05:37:32;;;;;;;27.50;15.70;;;;;;;4.12;58.67;95569.13;5059354;28;20200;-69
2024/01/17 05:39:58;;;;;;;32.43;16.10;;;;;;;4.26;58.23;95553.97;5049104;28;20286;-68
2024/01/17 05:42:23;;;;;;;29.30;18.00;;;;;;;4.13;58.92;95544.81;5053565;28;20179;-69
2024/01/17 05:44:48;;;;;;;40.80;15.63;;;;;;;4.06;58.71;95541.19;5057342;28;20272;-69
2024/01/17 05:47:14;;;;;;;31.97;15.80;;;;;;;4.00;59.38;95534.03;5045092;28;20198;-69
2024/01/17 05:49:40;;;;;;;31.10;14.40;;;;;;;4.04;58.79;95527.56;5050738;28;20211;-69
2024/01/17 05:52:05;;;;;;;25.60;15.10;;;;;;;4.15;58.91;95529.94;5047950;28;20835;-69
2024/01/17 05:54:31;;;;;;;22.57;14.60;;;;;;;4.28;58.36;95519.13;5042631;28;20547;-68
2024/01/17 05:56:56;;;;;;;27.90;16.20;;;;;;;4.15;59.07;95523.91;5046343;28;20273;-67
2024/01/17 05:59:22;;;;;;;70.60;34.30;;;;;;;4.32;58.71;95519.63;5026328;28;20230;-71
2024/01/17 06:01:47;;;;;;;64.30;31.33;;;;;;;4.39;58.77;95523.25;5038666;28;20433;-70
2024/01/17 06:04:13;;;;;;;36.13;20.87;;;;;;;4.46;58.29;95515.66;5047415;28;20210;-68
2024/01/17 06:06:38;;;;;;;33.37;18.27;;;;;;;4.53;58.47;95511.47;5048305;28;20686;-70
2024/01/17 06:09:07;;;;;;;44.63;24.27;;;;;;;4.41;57.83;95503.13;5048269;28;20309;-69
2024/01/17 06:11:32;;;;;;;73.27;37.03;;;;;;;4.46;58.07;95503.50;5056466;28;20228;-68
2024/01/17 06:13:59;;;;;;;30.47;17.87;;;;;;;4.45;58.56;95494.09;5054292;28;20918;-67
2024/01/17 06:16:25;;;;;;;34.20;18.27;;;;;;;4.53;58.56;95492.50;5044740;28;20195;-67
2024/01/17 06:18:51;;;;;;;38.37;17.17;;;;;;;4.57;58.18;95491.19;5050143;28;20433;-68
2024/01/17 06:21:16;;;;;;;28.90;16.73;;;;;;;4.54;58.25;95473.34;5036349;28;20253;-67
2024/01/17 06:23:43;;;;;;;28.80;17.30;;;;;;;4.57;58.74;95483.41;5038524;28;20199;-67
2024/01/17 06:26:09;;;;;;;24.23;15.27;;;;;;;4.63;58.37;95469.84;5037942;28;20211;-67
2024/01/17 06:28:35;;;;;;;26.90;15.77;;;;;;;4.60;58.94;95462.34;5042366;28;20418;-69
2024/01/17 06:31:00;;;;;;;37.63;15.70;;;;;;;4.57;58.83;95463.50;5032609;28;20504;-68
2024/01/17 06:33:26;;;;;;;31.50;15.47;;;;;;;4.62;58.69;95465.63;5036372;28;20269;-68
2024/01/17 06:35:51;;;;;;;35.47;16.20;;;;;;;4.57;58.97;95460.06;5033166;28;20278;-68
2024/01/17 06:38:17;;;;;;;39.10;15.37;;;;;;;4.51;59.46;95452.94;5031785;28;20222;-68
2024/01/17 06:40:42;;;;;;;32.50;16.13;;;;;;;4.50;59.34;95446.13;5039377;28;20215;-69
2024/01/17 06:43:08;;;;;;;34.00;16.40;;;;;;;4.54;59.18;95445.63;5046667;28;20190;-68
2024/01/17 06:45:33;;;;;;;26.33;15.83;;;;;;;4.53;59.36;95436.22;5039284;28;20211;-67
2024/01/17 06:48:01;;;;;;;40.07;17.33;;;;;;;4.46;59.34;95427.47;5031276;28;20215;-68
2024/01/17 06:50:26;;;;;;;26.50;16.60;;;;;;;4.51;59.68;95426.97;5028142;28;20294;-69
2024/01/17 06:52:52;;;;;;;36.67;15.77;;;;;;;4.48;59.24;95412.53;5032767;28;20521;-68
2024/01/17 06:55:17;;;;;;;30.23;14.10;;;;;;;4.40;59.99;95428.06;5045442;28;20762;-68
2024/01/17 06:57:43;;;;;;;34.77;15.70;;;;;;;4.45;59.99;95415.47;5032865;28;20269;-70
2024/01/17 07:00:08;;;;;;;26.20;13.27;;;;;;;4.68;61.64;95409.66;5030336;28;20219;-68
2024/01/17 07:02:34;;;;;;;32.17;15.57;;;;;;;4.75;61.79;95408.88;5038141;28;20183;-68
2024/01/17 07:04:59;;;;;;;33.43;17.13;;;;;;;4.89;58.97;95396.25;5035532;28;20545;-68
2024/01/17 07:07:25;;;;;;;29.73;15.60;;;;;;;4.88;59.58;95397.22;5050891;28;20193;-67
2024/01/17 07:09:50;;;;;;;33.63;17.37;;;;;;;4.84;59.22;95393.31;5040059;28;20195;-68
2024/01/17 07:12:16;;;;;;;35.10;17.27;;;;;;;4.90;59.20;95387.47;5043305;28;20640;-69
2024/01/17 07:14:41;;;;;;;34.83;15.90;;;;;;;4.87;59.35;95390.41;5058270;28;20178;-70
2024/01/17 07:17:07;;;;;;;30.03;16.57;;;;;;;4.83;59.45;95384.72;5048899;28;20202;-69
2024/01/17 07:19:36;;;;;;;26.60;15.70;;;;;;;4.83;59.59;95384.72;5040400;28;20601;-70
2024/01/17 07:22:01;;;;;;;29.37;15.57;;;;;;;4.92;59.34;95373.34;5047343;28;20179;-69
2024/01/17 07:24:27;;;;;;;30.93;16.80;;;;;;;4.86;59.55;95368.81;5042416;28;20444;-67
2024/01/17 07:26:52;;;;;;;28.90;16.47;;;;;;;4.84;60.06;95369.94;5037934;28;20349;-69
2024/01/17 07:29:18;;;;;;;39.57;17.00;;;;;;;4.78;60.92;95370.59;5044940;28;20610;-69
2024/01/17 07:31:43;;;;;;;38.33;18.30;;;;;;;4.76;61.17;95368.97;5059387;28;20186;-68
2024/01/17 07:34:09;;;;;;;37.73;18.40;;;;;;;4.80;61.46;95371.22;5050754;28;20278;-70
2024/01/17 07:36:34;;;;;;;33.97;17.60;;;;;;;4.81;61.27;95362.47;5048454;28;20240;-70
2024/01/17 07:38:59;;;;;;;34.37;17.80;;;;;;;4.84;61.65;95359.56;5053397;28;20187;-67
2024/01/17 07:41:25;;;;;;;28.37;17.50;;;;;;;4.91;61.26;95347.56;5055548;28;20207;-69
2024/01/17 07:43:50;;;;;;;29.47;16.57;;;;;;;4.83;61.91;95343.19;5033805;28;20184;-68
2024/01/17 07:46:16;;;;;;;35.60;16.97;;;;;;;4.84;61.60;95343.97;5050356;28;20413;-69
2024/01/17 07:48:42;;;;;;;29.03;17.80;;;;;;;4.64;62.84;95351.28;5050428;28;20182;-69
2024/01/17 07:51:08;;;;;;;25.83;16.90;;;;;;;4.58;62.94;95340.56;5047893;28;20456;-69
2024/01/17 07:53:33;;;;;;;25.70;17.17;;;;;;;4.56;63.38;95334.72;5047724;28;20639;-69
2024/01/17 07:56:00;;;;;;;26.97;17.23;;;;;;;4.67;63.32;95337.97;5043254;28;20269;-68
2024/01/17 07:58:25;;;;;;;33.33;18.73;;;;;;;4.59;63.55;95328.41;5039047;28;20197;-68
2024/01/17 08:00:51;;;;;;;29.07;17.87;;;;;;;4.67;64.21;95332.78;5039253;28;20970;-68
2024/01/17 08:03:16;;;;;;;32.03;18.90;;;;;;;4.69;63.76;95331.66;5048266;28;20188;-69
2024/01/17 08:05:41;;;;;;;31.63;18.23;;;;;;;4.80;63.47;95332.28;5039160;28;20735;-68
2024/01/17 08:08:07;;;;;;;33.63;18.67;;;;;;;4.81;64.08;95326.13;5040212;28;20565;-68
2024/01/17 08:10:33;;;;;;;32.97;18.30;;;;;;;4.76;63.74;95319.66;5048013;28;20217;-67
2024/01/17 08:12:58;;;;;;;32.20;18.03;;;;;;;4.84;63.48;95313.66;5052323;28;20202;-68
2024/01/17 08:15:24;;;;;;;36.03;18.57;;;;;;;4.84;63.95;95318.84;5029599;28;20628;-69
2024/01/17 08:17:50;;;;;;;28.27;18.20;;;;;;;4.91;63.85;95319.03;5049337;28;20373;-67
2024/01/17 08:20:16;;;;;;;27.77;17.73;;;;;;;4.97;63.58;95302.78;5049527;28;20219;-70
2024/01/17 08:22:43;;;;;;;28.70;17.80;;;;;;;4.98;63.90;95308.78;5050707;28;20448;-69
2024/01/17 08:25:08;;;;;;;37.93;17.37;;;;;;;5.03;64.11;95294.34;5040830;28;20496;-68
2024/01/17 08:27:34;;;;;;;32.73;18.33;;;;;;;5.05;63.79;95294.16;5048702;28;20511;-68
2024/01/17 08:29:59;;;;;;;32.17;17.17;;;;;;;5.13;64.06;95285.56;5037627;28;20207;-68
2024/01/17 08:32:24;;;;;;;29.73;18.20;;;;;;;5.17;63.71;95285.06;5049504;28;20724;-68
2024/01/17 08:34:50;;;;;;;27.30;17.37;;;;;;;5.13;64.14;95280.38;5052471;28;20601;-68
2024/01/17 08:37:16;;;;;;;27.90;17.17;;;;;;;5.17;63.44;95272.06;5057360;28;20559;-70
2024/01/17 08:39:44;;;;;;;28.33;16.40;;;;;;;5.20;63.81;95271.75;5060130;28;20229;-68
2024/01/17 08:42:12;;;;;;;29.20;16.70;;;;;;;5.08;64.73;95268.69;5049561;28;20175;-69
2024/01/17 08:44:40;;;;;;;31.00;17.63;;;;;;;5.10;64.65;95265.94;5039698;28;20415;-68
2024/01/17 08:47:07;;;;;;;28.67;17.13;;;;;;;5.05;64.82;95263.00;5037273;28;20501;-71
2024/01/17 08:49:33;;;;;;;32.53;17.50;;;;;;;5.20;64.75;95261.38;5039965;28;20935;-67
2024/01/17 08:51:59;;;;;;;29.67;16.40;;;;;;;5.12;64.46;95255.38;5011151;28;20517;-69
2024/01/17 08:54:25;;;;;;;36.80;18.80;;;;;;;5.18;65.05;95247.72;5032745;28;20251;-69
2024/01/17 08:56:51;;;;;;;27.57;16.97;;;;;;;5.29;64.54;95245.75;5043072;28;20425;-69
2024/01/17 08:59:16;;;;;;;35.77;17.30;;;;;;;5.33;64.38;95240.03;5043218;28;20422;-69
2024/01/17 09:01:42;;;;;;;30.20;17.07;;;;;;;5.44;64.58;95240.66;5047677;28;20284;-68
2024/01/17 09:04:07;;;;;;;32.90;17.60;;;;;;;5.38;64.56;95229.97;5049184;28;20218;-68
2024/01/17 09:06:33;;;;;;;38.87;20.27;;;;;;;5.43;64.53;95239.03;5037460;28;20261;-68
2024/01/17 09:08:58;;;;;;;38.57;19.67;;;;;;;5.48;64.60;95226.34;5046201;28;20183;-68
2024/01/17 09:11:24;;;;;;;29.83;18.10;;;;;;;5.51;64.76;95218.22;5042055;28;20271;-68
2024/01/17 09:13:49;;;;;;;32.37;18.63;;;;;;;5.51;64.71;95216.44;5037971;28;20187;-70
2024/01/17 09:16:15;;;;;;;33.90;19.00;;;;;;;5.57;64.94;95208.94;5043772;28;20194;-69
2024/01/17 09:18:40;;;;;;;28.90;17.60;;;;;;;5.56;65.05;95205.53;5045539;28;20224;-68
2024/01/17 09:21:06;;;;;;;33.73;20.07;;;;;;;5.67;64.63;95199.94;5033908;28;20575;-70
2024/01/17 09:23:31;;;;;;;33.63;19.00;;;;;;;5.72;64.56;95206.44;5050436;28;20195;-69
2024/01/17 09:25:57;;;;;;;31.87;17.53;;;;;;;5.71;64.71;95204.81;5057282;28;20206;-67
2024/01/17 09:28:22;;;;;;;27.30;14.57;;;;;;;5.79;64.39;95202.19;5045853;28;20855;-68
2024/01/17 09:30:47;;;;;;;30.13;15.03;;;;;;;5.83;64.69;95193.03;5045802;28;20713;-69
2024/01/17 09:33:13;;;;;;;32.10;17.03;;;;;;;5.88;64.53;95198.53;5047137;28;20302;-69
2024/01/17 09:35:42;;;;;;;28.20;15.63;;;;;;;5.91;64.47;95198.22;5042670;28;20175;-67
2024/01/17 09:38:08;;;;;;;25.40;15.30;;;;;;;5.95;64.12;95186.47;5045286;28;20191;-68
2024/01/17 09:40:33;;;;;;;29.20;14.70;;;;;;;6.01;64.47;95176.41;5037346;28;20450;-71
2024/01/17 09:42:59;;;;;;;26.80;15.10;;;;;;;6.05;64.07;95175.06;5047731;28;20805;-69
2024/01/17 09:45:29;;;;;;;35.77;15.83;;;;;;;6.05;63.95;95170.66;5038777;28;20218;-67
2024/01/17 09:47:55;;;;;;;32.70;15.20;;;;;;;6.09;64.22;95166.75;5047388;28;20421;-67
2024/01/17 09:50:21;;;;;;;32.60;16.50;;;;;;;6.11;64.03;95154.34;5041332;28;20438;-67
2024/01/17 09:52:48;;;;;;;31.20;15.17;;;;;;;6.13;64.24;95147.19;5045688;28;20421;-70
2024/01/17 09:55:15;;;;;;;29.80;14.50;;;;;;;6.15;63.83;95139.22;5040659;28;20846;-68
2024/01/17 09:57:45;;;;;;;41.37;15.93;;;;;;;6.18;64.14;95133.66;5043512;28;20444;-67
2024/01/17 10:00:11;;;;;;;33.50;16.33;;;;;;;6.17;64.41;95126.88;5051504;28;20533;-71
2024/01/17 10:02:38;;;;;;;36.23;15.50;;;;;;;6.21;64.38;95117.72;5037455;28;20833;-69
2024/01/17 10:05:09;;;;;;;23.87;15.00;;;;;;;6.26;64.35;95115.41;5053203;28;20426;-69
2024/01/17 10:07:36;;;;;;;28.67;13.87;;;;;;;6.29;64.12;95115.06;5036594;28;20415;-69
2024/01/17 10:10:01;;;;;;;29.17;14.07;;;;;;;6.27;64.13;95109.22;5038872;28;20453;-68
2024/01/17 10:12:27;;;;;;;26.90;13.77;;;;;;;6.33;64.18;95102.50;5035504;28;20429;-70
2024/01/17 10:14:52;;;;;;;23.50;13.77;;;;;;;6.39;64.02;95093.16;5047364;28;20178;-69
2024/01/17 10:17:19;;;;;;;32.40;13.67;;;;;;;6.45;63.97;95088.06;5036992;28;20668;-69
2024/01/17 10:19:44;;;;;;;25.10;13.53;;;;;;;6.44;64.16;95078.66;5032856;28;20301;-68
2024/01/17 10:22:10;;;;;;;24.53;13.23;;;;;;;6.51;63.84;95076.13;5054453;28;20492;-70
2024/01/17 10:24:37;;;;;;;27.17;13.20;;;;;;;6.50;63.76;95063.28;5045126;28;20233;-69
2024/01/17 10:27:03;;;;;;;22.97;12.73;;;;;;;6.48;64.20;95058.28;5021683;28;20469;-69
2024/01/17 10:29:31;;;;;;;19.33;12.13;;;;;;;6.53;64.21;95040.34;5044826;28;20430;-68
2024/01/17 10:32:00;;;;;;;25.10;12.33;;;;;;;6.54;64.29;95030.72;5037361;28;20517;-68
2024/01/17 10:34:32;;;;;;;28.03;13.23;;;;;;;6.52;64.70;95033.50;5049558;28;21008;-68
2024/01/17 10:36:58;;;;;;;29.43;13.50;;;;;;;6.49;65.08;95023.47;5045480;28;20879;-68
2024/01/17 10:39:25;;;;;;;33.03;13.93;;;;;;;6.49;64.86;95015.66;5044783;28;20446;-68
2024/01/17 10:41:54;;;;;;;24.73;12.97;;;;;;;6.50;65.13;95013.84;5050314;28;20252;-68
2024/01/17 10:44:27;;;;;;;23.60;13.17;;;;;;;6.52;64.76;95004.06;5020999;28;20429;-69
2024/01/17 10:46:53;;;;;;;32.27;13.13;;;;;;;6.50;64.89;94986.03;5043080;28;20579;-68
2024/01/17 10:49:20;;;;;;;23.83;13.23;;;;;;;6.46;65.09;94984.78;5053747;28;20452;-70
2024/01/17 10:52:02;;;;;;;25.17;14.03;;;;;;;6.47;65.11;94981.19;5038581;28;20521;-72
2024/01/17 10:54:37;;;;;;;27.80;14.20;;;;;;;6.49;65.28;94976.63;5029894;28;20537;-71
2024/01/17 10:57:06;;;;;;;31.53;14.40;;;;;;;6.55;65.16;94977.69;5018714;28;20940;-68
2024/01/17 10:59:32;;;;;;;35.47;14.63;;;;;;;6.45;64.73;94968.38;5031607;28;20946;-66
2024/01/17 11:01:58;;;;;;;22.70;14.63;;;;;;;6.39;65.48;94968.28;5042918;28;20542;-68
2024/01/17 11:04:29;;;;;;;26.10;14.37;;;;;;;6.46;65.25;94958.75;5028803;28;20517;-68
2024/01/17 11:06:54;;;;;;;33.73;16.50;;;;;;;6.45;65.79;94967.56;5029683;28;20199;-70
2024/01/17 11:09:21;;;;;;;31.50;15.20;;;;;;;6.41;65.55;94961.13;5045695;28;20766;-67
2024/01/17 11:11:47;;;;;;;30.50;15.43;;;;;;;6.44;65.46;94965.94;5037953;28;20207;-70
2024/01/17 11:14:13;;;;;;;19.87;13.80;;;;;;;6.49;65.17;94948.00;5030024;28;20421;-68
2024/01/17 11:16:39;;;;;;;26.97;15.30;;;;;;;6.49;65.76;94942.78;5043348;28;20447;-69
2024/01/17 11:19:06;;;;;;;32.33;15.57;;;;;;;6.48;65.72;94940.38;5030467;28;20238;-70